createdAt,value
2022-09-16T00:01:14.335Z,1.37
2022-09-16T00:03:43.108Z,1.10
2022-09-16T00:06:19.202Z,1.43
2022-09-16T00:08:49.366Z,1.07
2022-09-16T00:11:18.254Z,0.97
2022-09-16T00:13:47.370Z,0.97
2022-09-16T00:16:19.633Z,0.83
2022-09-16T00:18:48.595Z,0.97
2022-09-16T00:21:17.454Z,1.27
2022-09-16T00:23:45.869Z,0.87
2022-09-16T00:26:15.643Z,0.93
2022-09-16T00:28:44.213Z,1.03
2022-09-16T00:31:12.673Z,1.10
2022-09-16T00:33:41.129Z,1.27
2022-09-16T00:36:11.571Z,1.27
2022-09-16T00:38:40.681Z,1.37
2022-09-16T00:41:13.523Z,1.10
2022-09-16T00:43:51.783Z,1.00
2022-09-16T00:46:23.908Z,0.80
2022-09-16T00:48:52.719Z,0.90
2022-09-16T00:51:22.104Z,1.90
2022-09-16T00:53:56.877Z,1.30
2022-09-16T00:56:28.162Z,0.90
2022-09-16T00:59:04.058Z,1.27
2022-09-16T01:01:33.480Z,1.27
2022-09-16T01:04:04.863Z,1.47
2022-09-16T01:06:38.857Z,1.10
2022-09-16T01:09:07.859Z,1.50
2022-09-16T01:11:36.472Z,0.73
2022-09-16T01:14:24.932Z,1.50
2022-09-16T01:17:01.233Z,0.83
2022-09-16T01:19:53.896Z,1.27
2022-09-16T01:22:37.343Z,1.23
2022-09-16T01:25:19.952Z,1.10
2022-09-16T01:28:24.498Z,1.20
2022-09-16T01:31:03.895Z,1.10
2022-09-16T01:33:41.772Z,1.47
2022-09-16T01:36:26.609Z,1.30
2022-09-16T01:39:08.874Z,1.23
2022-09-16T01:41:52.952Z,1.40
2022-09-16T01:44:26.872Z,1.13
2022-09-16T01:47:03.046Z,1.23
2022-09-16T01:49:43.545Z,1.03
2022-09-16T01:52:21.189Z,1.10
2022-09-16T01:54:53.921Z,1.20
2022-09-16T01:57:28.042Z,1.20
2022-09-16T02:00:02.059Z,1.00
2022-09-16T02:02:40.349Z,1.17
2022-09-16T02:05:13.723Z,0.83
2022-09-16T02:07:46.435Z,0.67
2022-09-16T02:10:23.212Z,1.23
2022-09-16T02:12:55.459Z,1.30
2022-09-16T02:15:26.344Z,1.40
2022-09-16T02:18:02.170Z,1.03
2022-09-16T02:20:32.637Z,0.80
2022-09-16T02:23:05.331Z,1.30
2022-09-16T02:25:36.741Z,0.90
2022-09-16T02:28:12.586Z,1.50
2022-09-16T02:30:45.890Z,1.20
2022-09-16T02:33:17.175Z,0.73
2022-09-16T02:35:50.345Z,0.93
2022-09-16T02:38:24.420Z,1.20
2022-09-16T02:40:55.604Z,1.00
2022-09-16T02:43:24.561Z,0.97
2022-09-16T02:46:00.866Z,1.07
2022-09-16T02:48:41.020Z,0.90
2022-09-16T02:51:20.644Z,1.30
2022-09-16T02:53:53.592Z,1.30
2022-09-16T02:56:28.180Z,0.90
2022-09-16T02:58:56.701Z,1.20
2022-09-16T03:01:26.071Z,1.30
2022-09-16T03:03:57.258Z,0.80
2022-09-16T03:06:27.147Z,1.10
2022-09-16T03:08:58.896Z,1.57
2022-09-16T03:11:48.216Z,1.50
2022-09-16T03:14:43.381Z,1.07
2022-09-16T03:17:24.568Z,1.40
2022-09-16T03:20:03.336Z,0.80
2022-09-16T03:22:40.896Z,0.80
2022-09-16T03:25:19.012Z,1.17
2022-09-16T03:27:52.464Z,1.03
2022-09-16T03:30:21.398Z,0.80
2022-09-16T03:32:54.417Z,1.03
2022-09-16T03:35:28.433Z,0.90
2022-09-16T03:37:59.397Z,1.00
2022-09-16T03:40:30.664Z,1.33
2022-09-16T03:42:59.642Z,1.10
2022-09-16T03:45:28.054Z,0.93
2022-09-16T03:47:56.479Z,1.20
2022-09-16T03:50:26.229Z,1.00
2022-09-16T03:52:54.664Z,1.07
2022-09-16T03:55:23.032Z,1.17
2022-09-16T03:57:51.469Z,1.63
2022-09-16T04:00:21.466Z,1.37
2022-09-16T04:02:49.985Z,1.07
2022-09-16T04:05:18.428Z,0.90
2022-09-16T04:07:49.672Z,1.43
2022-09-16T04:10:18.432Z,1.03
2022-09-16T04:12:46.820Z,1.23
2022-09-16T04:15:15.343Z,0.80
2022-09-16T04:17:43.747Z,1.17
2022-09-16T04:20:12.144Z,1.17
2022-09-16T04:22:40.485Z,1.10
2022-09-16T04:25:11.075Z,1.20
2022-09-16T04:27:39.480Z,1.10
2022-09-16T04:30:09.091Z,1.10
2022-09-16T04:32:37.479Z,0.73
2022-09-16T04:35:06.571Z,0.87
2022-09-16T04:37:34.971Z,1.30
2022-09-16T04:40:05.166Z,0.70
2022-09-16T04:42:35.121Z,0.80
2022-09-16T04:45:03.907Z,0.80
2022-09-16T04:47:32.410Z,0.73
2022-09-16T04:50:00.805Z,0.90
2022-09-16T04:52:31.727Z,0.90
2022-09-16T04:55:00.076Z,1.37
2022-09-16T04:57:32.268Z,0.80
2022-09-16T05:00:02.365Z,1.10
2022-09-16T05:02:30.901Z,1.20
2022-09-16T05:04:59.316Z,1.10
2022-09-16T05:07:29.016Z,1.50
2022-09-16T05:09:57.529Z,1.10
2022-09-16T05:12:25.968Z,1.00
2022-09-16T05:14:54.369Z,0.83
2022-09-16T05:17:49.364Z,1.00
2022-09-16T05:20:12.657Z,0.90
2022-09-16T05:22:41.127Z,1.37
2022-09-16T05:25:10.308Z,0.83
2022-09-16T05:27:38.706Z,1.40
2022-09-16T05:30:08.199Z,1.40
2022-09-16T05:32:37.945Z,1.20
2022-09-16T05:35:07.072Z,1.20
2022-09-16T05:37:35.446Z,1.40
2022-09-16T05:40:04.258Z,1.27
2022-09-16T05:42:32.705Z,1.30
2022-09-16T05:45:01.067Z,1.50
2022-09-16T05:47:29.484Z,1.27
2022-09-16T05:49:59.254Z,1.30
2022-09-16T05:52:28.224Z,1.37
2022-09-16T05:54:56.659Z,1.60
2022-09-16T05:57:25.076Z,1.03
2022-09-16T05:59:53.436Z,1.07
2022-09-16T06:02:21.865Z,0.73
2022-09-16T06:04:50.342Z,1.07
2022-09-16T06:07:20.356Z,1.10
2022-09-16T06:09:48.999Z,1.43
2022-09-16T06:12:17.447Z,0.80
2022-09-16T06:14:45.860Z,1.23
2022-09-16T06:17:14.288Z,1.00
2022-09-16T06:19:42.726Z,1.20
2022-09-16T06:22:11.092Z,0.93
2022-09-16T06:24:40.840Z,1.37
2022-09-16T06:27:09.462Z,0.97
2022-09-16T06:29:37.812Z,1.23
2022-09-16T06:32:06.521Z,1.57
2022-09-16T06:34:34.907Z,1.30
2022-09-16T06:37:03.265Z,1.50
2022-09-16T06:39:31.695Z,1.40
2022-09-16T06:42:01.479Z,1.43
2022-09-16T06:44:42.321Z,1.03
2022-09-16T06:47:11.092Z,1.23
2022-09-16T06:49:39.468Z,1.20
2022-09-16T06:52:09.433Z,0.70
2022-09-16T06:54:37.820Z,1.23
2022-09-16T06:57:11.462Z,1.53
2022-09-16T06:59:40.607Z,1.17
2022-09-16T07:02:10.901Z,1.70
2022-09-16T07:04:39.742Z,1.57
2022-09-16T07:07:09.994Z,1.30
2022-09-16T07:09:39.231Z,1.20
2022-09-16T07:12:09.399Z,1.20
2022-09-16T07:14:37.814Z,1.17
2022-09-16T07:17:06.509Z,0.80
2022-09-16T07:19:34.901Z,1.07
2022-09-16T07:22:03.642Z,1.33
2022-09-16T07:24:32.064Z,1.63
2022-09-16T07:27:01.107Z,1.93
2022-09-16T07:29:30.966Z,1.70
2022-09-16T07:32:00.345Z,1.40
2022-09-16T07:34:28.742Z,1.50
2022-09-16T07:36:57.534Z,0.93
2022-09-16T07:39:27.152Z,1.10
2022-09-16T07:41:55.539Z,0.53
2022-09-16T07:44:24.515Z,0.67
2022-09-16T07:46:54.338Z,0.70
2022-09-16T07:49:22.754Z,0.63
2022-09-16T07:51:51.235Z,1.20
2022-09-16T07:54:21.426Z,1.03
2022-09-16T07:56:49.844Z,0.70
2022-09-16T07:59:20.255Z,0.53
2022-09-16T08:01:49.565Z,0.70
2022-09-16T08:04:20.658Z,0.50
2022-09-16T08:06:49.479Z,1.00
2022-09-16T08:12:07.880Z,0.63
2022-09-16T08:14:36.616Z,0.53
2022-09-16T08:17:05.284Z,0.70
2022-09-16T08:19:35.213Z,0.63
2022-09-16T08:22:03.575Z,0.40
2022-09-16T08:24:32.412Z,0.70
2022-09-16T08:27:00.753Z,0.60
2022-09-16T08:29:29.656Z,0.50
2022-09-16T08:31:58.122Z,0.43
2022-09-16T08:34:26.711Z,1.20
2022-09-16T08:36:56.484Z,0.43
2022-09-16T08:39:24.859Z,0.50
2022-09-16T08:42:25.534Z,0.97
2022-09-16T08:45:01.973Z,0.40
2022-09-16T08:47:38.596Z,0.50
2022-09-16T08:50:16.094Z,0.40
2022-09-16T08:52:47.489Z,0.57
2022-09-16T08:55:19.847Z,0.80
2022-09-16T08:57:56.702Z,0.60
2022-09-16T09:00:25.293Z,0.80
2022-09-16T09:02:56.718Z,1.17
2022-09-16T09:05:32.807Z,0.50
2022-09-16T09:08:20.709Z,0.87
2022-09-16T09:10:52.350Z,1.33
2022-09-16T09:13:43.503Z,0.40
2022-09-16T09:16:21.380Z,0.47
2022-09-16T09:19:00.134Z,0.77
2022-09-16T09:21:33.975Z,0.53
2022-09-16T09:24:20.992Z,0.80
2022-09-16T09:26:51.464Z,0.40
2022-09-16T09:29:39.222Z,0.73
2022-09-16T09:32:18.021Z,0.60
2022-09-16T09:35:00.199Z,0.87
2022-09-16T09:37:44.653Z,0.40
2022-09-16T09:40:18.771Z,0.80
2022-09-16T09:42:53.595Z,0.70
2022-09-16T09:45:27.168Z,0.80
2022-09-16T09:47:58.722Z,0.57
2022-09-16T09:50:31.955Z,1.20
2022-09-16T09:53:08.492Z,0.60
2022-09-16T09:55:39.572Z,0.30
2022-09-16T09:58:20.584Z,0.50
2022-09-16T10:00:49.043Z,0.40
2022-09-16T10:03:19.849Z,0.40
2022-09-16T10:05:48.955Z,0.77
2022-09-16T10:08:26.924Z,0.40
2022-09-16T10:10:58.811Z,0.43
2022-09-16T10:13:29.814Z,0.50
2022-09-16T10:16:10.489Z,0.70
2022-09-16T10:18:39.187Z,0.57
2022-09-16T10:21:10.459Z,0.50
2022-09-16T10:23:39.923Z,0.70
2022-09-16T10:26:20.392Z,0.50
2022-09-16T10:29:00.672Z,0.80
2022-09-16T10:31:34.496Z,0.60
2022-09-16T10:34:04.619Z,0.93
2022-09-16T10:36:36.062Z,0.40
2022-09-16T10:39:06.304Z,0.57
2022-09-16T10:41:44.524Z,0.40
2022-09-16T10:44:17.871Z,0.40
2022-09-16T10:46:54.971Z,0.60
2022-09-16T10:49:29.370Z,0.57
2022-09-16T10:52:09.231Z,0.80
2022-09-16T10:54:37.644Z,0.30
2022-09-16T10:57:25.607Z,0.67
2022-09-16T10:59:58.943Z,0.80
2022-09-16T11:02:55.734Z,0.73
2022-09-16T11:05:33.079Z,0.80
2022-09-16T11:08:12.256Z,0.70
2022-09-16T11:10:48.607Z,0.83
2022-09-16T11:13:33.035Z,0.73
2022-09-16T11:16:25.319Z,0.50
2022-09-16T11:19:04.689Z,0.57
2022-09-16T11:21:57.638Z,0.40
2022-09-16T11:24:51.871Z,0.70
2022-09-16T11:27:34.892Z,0.60
2022-09-16T11:30:10.806Z,0.70
2022-09-16T11:33:07.456Z,0.83
2022-09-16T11:36:07.070Z,0.40
2022-09-16T11:38:46.040Z,1.07
2022-09-16T11:41:24.029Z,0.90
2022-09-16T11:44:07.205Z,0.63
2022-09-16T11:46:48.690Z,0.60
2022-09-16T11:49:37.188Z,0.83
2022-09-16T11:52:19.725Z,0.80
2022-09-16T11:55:08.843Z,0.63
2022-09-16T11:57:41.663Z,0.50
2022-09-16T12:00:18.783Z,0.50
2022-09-16T12:02:57.909Z,0.87
2022-09-16T12:05:30.811Z,1.03
2022-09-16T12:08:05.804Z,0.60
2022-09-16T12:10:42.404Z,0.40
2022-09-16T12:13:15.351Z,0.57
2022-09-16T12:15:48.929Z,0.50
2022-09-16T12:18:21.715Z,0.87
2022-09-16T12:20:54.982Z,0.60
2022-09-16T12:23:25.783Z,0.50
2022-09-16T12:26:06.777Z,0.80
2022-09-16T12:28:38.785Z,0.93
2022-09-16T12:31:14.813Z,0.60
2022-09-16T12:33:51.555Z,0.43
2022-09-16T12:36:24.664Z,0.90
2022-09-16T12:38:53.121Z,0.40
2022-09-16T12:41:45.343Z,1.17
2022-09-16T12:44:43.820Z,0.50
2022-09-16T12:47:46.307Z,0.73
2022-09-16T12:50:53.777Z,0.87
2022-09-16T12:54:10.384Z,0.47
2022-09-16T12:56:50.732Z,1.03
2022-09-16T12:59:54.521Z,0.50
2022-09-16T13:02:29.052Z,0.80
2022-09-16T13:05:12.363Z,0.70
2022-09-16T13:07:42.632Z,1.17
2022-09-16T13:10:26.434Z,0.50
2022-09-16T13:13:05.657Z,0.57
2022-09-16T13:15:36.587Z,0.80
2022-09-16T13:18:23.761Z,0.53
2022-09-16T13:20:57.281Z,0.70
2022-09-16T13:23:32.808Z,1.10
2022-09-16T13:26:03.264Z,0.77
2022-09-16T13:28:38.340Z,0.83
2022-09-16T13:31:21.273Z,0.30
2022-09-16T13:34:02.968Z,1.30
2022-09-16T13:36:33.056Z,0.80
2022-09-16T13:39:05.259Z,0.80
2022-09-16T13:41:36.967Z,1.23
2022-09-16T13:44:30.893Z,0.83
2022-09-16T13:47:16.930Z,1.20
2022-09-16T13:49:50.892Z,0.97
2022-09-16T13:52:22.490Z,0.73
2022-09-16T13:55:11.311Z,0.90
2022-09-16T13:57:53.320Z,1.50
2022-09-16T14:00:23.672Z,1.27
2022-09-16T14:03:13.402Z,1.00
2022-09-16T14:06:00.992Z,1.20
2022-09-16T14:08:39.558Z,0.80
2022-09-16T14:11:17.916Z,0.70
2022-09-16T14:13:49.466Z,1.47
2022-09-16T14:16:24.080Z,1.03
2022-09-16T14:18:57.665Z,1.20
2022-09-16T14:21:26.885Z,0.80
2022-09-16T14:23:55.342Z,0.90
2022-09-16T14:26:25.701Z,1.47
2022-09-16T14:29:04.775Z,1.00
2022-09-16T14:31:34.828Z,1.00
2022-09-16T14:34:09.579Z,0.90
2022-09-16T14:36:40.905Z,0.70
2022-09-16T14:39:13.834Z,0.73
2022-09-16T14:41:48.632Z,0.77
2022-09-16T14:44:23.182Z,0.57
2022-09-16T14:47:04.605Z,0.93
2022-09-16T14:49:38.869Z,0.60
2022-09-16T14:52:19.463Z,1.10
2022-09-16T14:54:48.373Z,0.97
2022-09-16T14:57:22.675Z,1.57
2022-09-16T14:59:53.213Z,0.60
2022-09-16T15:02:25.535Z,1.00
2022-09-16T15:04:57.587Z,0.87
2022-09-16T15:07:30.319Z,1.13
2022-09-16T15:10:02.808Z,1.27
2022-09-16T15:12:35.651Z,1.37
2022-09-16T15:15:05.801Z,1.00
2022-09-16T15:17:34.445Z,0.87
2022-09-16T15:20:03.228Z,1.17
2022-09-16T15:22:31.751Z,1.53
2022-09-16T15:25:00.570Z,1.00
2022-09-16T15:27:32.676Z,1.63
2022-09-16T15:30:05.544Z,1.00
2022-09-16T15:32:45.648Z,1.67
2022-09-16T15:35:25.427Z,0.80
2022-09-16T15:37:55.110Z,1.13
2022-09-16T15:40:33.688Z,1.50
2022-09-16T15:43:11.647Z,0.87
2022-09-16T15:45:40.407Z,1.77
2022-09-16T15:48:15.277Z,1.20
2022-09-16T15:50:47.827Z,1.10
2022-09-16T15:53:20.647Z,1.57
2022-09-16T15:55:57.660Z,1.40
2022-09-16T15:58:43.229Z,1.07
2022-09-16T16:01:15.669Z,1.00
2022-09-16T16:03:53.232Z,0.90
2022-09-16T16:06:42.840Z,0.80
2022-09-16T16:09:40.387Z,0.90
2022-09-16T16:12:11.564Z,0.93
2022-09-16T16:14:42.232Z,0.70
2022-09-16T16:17:14.639Z,0.70
2022-09-16T16:19:44.239Z,0.80
2022-09-16T16:22:13.047Z,0.77
2022-09-16T16:24:41.760Z,0.87
2022-09-16T16:27:10.503Z,1.10
2022-09-16T16:29:39.248Z,1.20
2022-09-16T16:32:11.514Z,0.80
2022-09-16T16:34:41.479Z,0.50
2022-09-16T16:37:23.227Z,0.87
2022-09-16T16:39:59.459Z,1.33
2022-09-16T16:42:28.776Z,0.97
2022-09-16T16:44:57.468Z,1.00
2022-09-16T16:47:27.379Z,1.17
2022-09-16T16:49:55.738Z,0.87
2022-09-16T16:52:24.189Z,1.13
2022-09-16T16:54:52.603Z,1.10
2022-09-16T16:57:21.000Z,1.00
2022-09-16T16:59:49.457Z,1.20
2022-09-16T17:02:17.958Z,1.40
2022-09-16T17:04:47.783Z,1.17
2022-09-16T17:07:32.589Z,1.17
2022-09-16T17:10:01.059Z,1.33
2022-09-16T17:12:29.493Z,1.07
2022-09-16T17:14:57.900Z,1.27
2022-09-16T17:17:31.360Z,1.00
2022-09-16T17:20:01.681Z,1.30
2022-09-16T17:22:30.102Z,1.20
2022-09-16T17:24:58.583Z,1.27
2022-09-16T17:27:27.911Z,1.43
2022-09-16T17:29:56.698Z,1.47
2022-09-16T17:32:25.281Z,1.50
2022-09-16T17:34:53.686Z,1.03
2022-09-16T17:37:23.471Z,0.97
2022-09-16T17:39:52.091Z,1.03
2022-09-16T17:42:20.996Z,2.00
2022-09-16T17:44:49.414Z,1.90
2022-09-16T17:47:17.829Z,1.93
2022-09-16T17:49:46.284Z,1.40
2022-09-16T17:52:14.719Z,1.93
2022-09-16T17:54:44.515Z,1.80
2022-09-16T17:57:12.973Z,1.52
2022-09-16T17:59:41.354Z,1.40
2022-09-16T18:02:12.032Z,1.30
2022-09-16T18:04:42.940Z,1.73
2022-09-16T18:07:11.739Z,2.37
2022-09-16T18:09:46.895Z,1.77
2022-09-16T18:12:15.439Z,2.07
2022-09-16T18:14:48.541Z,1.23
2022-09-16T18:17:28.336Z,1.50
2022-09-16T18:19:58.655Z,1.30
2022-09-16T18:22:27.250Z,1.10
2022-09-16T18:24:57.123Z,2.10
2022-09-16T18:27:26.364Z,1.60
2022-09-16T18:29:54.954Z,1.50
2022-09-16T18:32:23.351Z,1.30
2022-09-16T18:34:51.757Z,1.57
2022-09-16T18:37:20.234Z,1.40
2022-09-16T18:39:48.813Z,1.50
2022-09-16T18:42:18.636Z,2.13
2022-09-16T18:44:48.031Z,1.40
2022-09-16T18:47:16.440Z,1.90
2022-09-16T18:49:44.868Z,0.90
2022-09-16T18:52:13.249Z,1.77
2022-09-16T18:54:42.213Z,0.90
2022-09-16T18:57:10.697Z,1.60
2022-09-16T18:59:40.730Z,1.73
2022-09-16T19:02:12.393Z,1.33
2022-09-16T19:04:42.628Z,1.43
2022-09-16T19:07:14.365Z,1.50
2022-09-16T19:09:43.004Z,1.30
2022-09-16T19:12:13.403Z,1.23
2022-09-16T19:14:43.379Z,2.00
2022-09-16T19:17:11.873Z,1.57
2022-09-16T19:19:40.357Z,1.53
2022-09-16T19:22:08.796Z,1.43
2022-09-16T19:24:38.346Z,1.80
2022-09-16T19:27:06.889Z,1.73
2022-09-16T19:29:35.308Z,1.43
2022-09-16T19:32:05.145Z,2.17
2022-09-16T19:34:33.688Z,1.43
2022-09-16T19:37:02.203Z,1.27
2022-09-16T19:39:30.596Z,1.27
2022-09-16T19:42:03.395Z,1.80
2022-09-16T19:44:32.022Z,1.47
2022-09-16T19:47:01.303Z,0.90
2022-09-16T19:49:31.049Z,0.90
2022-09-16T19:51:59.517Z,1.07
2022-09-16T19:54:27.904Z,1.50
2022-09-16T19:56:56.471Z,0.90
2022-09-16T19:59:24.877Z,0.90
2022-09-16T20:01:53.377Z,1.20
2022-09-16T20:04:21.792Z,1.43
2022-09-16T20:06:51.567Z,0.90
2022-09-16T20:09:20.596Z,1.43
2022-09-16T20:11:49.853Z,1.17
2022-09-16T20:14:19.848Z,1.13
2022-09-16T20:16:49.358Z,1.50
2022-09-16T20:19:19.866Z,1.20
2022-09-16T20:21:48.352Z,1.07
2022-09-16T20:24:21.366Z,0.77
2022-09-16T20:26:50.630Z,1.23
2022-09-16T20:29:19.943Z,0.40
2022-09-16T20:31:50.032Z,1.00
2022-09-16T20:34:18.528Z,1.40
2022-09-16T20:36:47.339Z,0.70
2022-09-16T20:39:16.261Z,0.67
2022-09-16T20:41:49.673Z,0.90
2022-09-16T20:44:18.342Z,0.70
2022-09-16T20:46:48.149Z,1.00
2022-09-16T20:49:19.017Z,0.80
2022-09-16T20:51:47.427Z,1.30
2022-09-16T20:54:17.007Z,0.77
2022-09-16T20:56:48.388Z,1.00
2022-09-16T20:59:19.871Z,0.97
2022-09-16T21:01:49.432Z,0.90
2022-09-16T21:04:20.009Z,1.00
2022-09-16T21:06:48.937Z,1.17
2022-09-16T21:09:18.980Z,0.87
2022-09-16T21:11:49.725Z,0.90
2022-09-16T21:14:21.503Z,2.03
2022-09-16T21:16:51.513Z,2.40
2022-09-16T21:19:20.133Z,1.20
2022-09-16T21:21:48.591Z,1.23
2022-09-16T21:24:17.353Z,0.90
2022-09-16T21:26:46.252Z,0.93
2022-09-16T21:29:18.846Z,1.00
2022-09-16T21:31:48.420Z,1.20
2022-09-16T21:34:19.713Z,1.00
2022-09-16T21:36:49.636Z,1.50
2022-09-16T21:39:19.374Z,1.07
2022-09-16T21:41:48.896Z,1.37
2022-09-16T21:44:19.147Z,1.13
2022-09-16T21:46:47.850Z,1.00
2022-09-16T21:49:22.880Z,0.97
2022-09-16T21:51:52.779Z,1.10
2022-09-16T21:54:21.681Z,1.23
2022-09-16T21:56:50.652Z,1.00
2022-09-16T21:59:20.809Z,1.37
2022-09-16T22:01:50.559Z,1.67
2022-09-16T22:04:21.053Z,1.33
2022-09-16T22:06:50.422Z,2.23
2022-09-16T22:09:19.127Z,2.30
2022-09-16T22:11:47.757Z,1.07
2022-09-16T22:14:16.298Z,1.07
2022-09-16T22:16:46.434Z,1.60
2022-09-16T22:19:26.095Z,1.87
2022-09-16T22:21:54.453Z,2.03
2022-09-16T22:24:22.971Z,1.17
2022-09-16T22:26:52.407Z,1.87
2022-09-16T22:29:21.152Z,2.07
2022-09-16T22:31:51.008Z,1.97
2022-09-16T22:34:19.673Z,1.90
2022-09-16T22:36:48.038Z,1.47
2022-09-16T22:39:18.259Z,2.23
2022-09-16T22:41:47.512Z,1.30
2022-09-16T22:44:16.079Z,1.57
2022-09-16T22:46:46.862Z,1.67
2022-09-16T22:49:16.779Z,3.80
2022-09-16T22:51:45.712Z,4.50
2022-09-16T22:54:15.755Z,1.93
2022-09-16T22:56:45.130Z,1.33
2022-09-16T22:59:18.294Z,1.57
2022-09-16T23:01:47.040Z,1.10
2022-09-16T23:04:17.464Z,1.50
2022-09-16T23:06:46.731Z,1.53
2022-09-16T23:09:15.525Z,1.53
2022-09-16T23:11:44.458Z,1.53
2022-09-16T23:14:15.026Z,1.77
2022-09-16T23:16:43.413Z,2.00
2022-09-16T23:19:12.816Z,1.90
2022-09-16T23:21:42.803Z,1.50
2022-09-16T23:24:16.328Z,1.53
2022-09-16T23:26:45.931Z,1.60
2022-09-16T23:29:16.234Z,1.83
2022-09-16T23:31:45.924Z,1.77
2022-09-16T23:34:17.178Z,2.10
2022-09-16T23:36:47.448Z,1.87
2022-09-16T23:39:17.253Z,2.07
2022-09-16T23:41:46.330Z,1.73
2022-09-16T23:44:15.854Z,1.43
2022-09-16T23:46:45.022Z,1.70
2022-09-16T23:49:16.793Z,1.83
2022-09-16T23:51:47.552Z,2.00
2022-09-16T23:54:17.208Z,3.07
2022-09-16T23:56:45.881Z,4.10
2022-09-16T23:59:14.320Z,2.90
